createdAt,value
2022-09-05T00:02:39.300Z,22.10
2022-09-05T00:05:30.676Z,22.20
2022-09-05T00:08:05.813Z,22.00
2022-09-05T00:11:16.843Z,22.00
2022-09-05T00:13:36.891Z,22.00
2022-09-05T00:16:30.351Z,22.00
2022-09-05T00:24:22.579Z,21.90
2022-09-05T00:24:23.409Z,21.90
2022-09-05T00:28:25.498Z,21.90
2022-09-05T00:31:54.897Z,21.80
2022-09-05T00:34:11.044Z,21.80
2022-09-05T00:36:45.167Z,21.80
2022-09-05T00:39:19.114Z,21.80
2022-09-05T00:41:50.671Z,21.80
2022-09-05T00:44:21.590Z,21.80
2022-09-05T00:46:57.282Z,21.70
2022-09-05T00:49:32.821Z,21.80
2022-09-05T00:52:06.070Z,21.70
2022-09-05T00:54:51.640Z,21.70
2022-09-05T00:58:07.203Z,21.80
2022-09-05T01:00:50.023Z,21.80
2022-09-05T01:03:39.015Z,21.80
2022-09-05T01:06:26.292Z,21.80
2022-09-05T01:09:15.430Z,21.70
2022-09-05T01:12:06.466Z,21.70
2022-09-05T01:14:55.308Z,21.70
2022-09-05T01:17:36.451Z,21.60
2022-09-05T01:20:25.710Z,21.60
2022-09-05T01:23:12.931Z,21.60
2022-09-05T01:26:02.470Z,21.50
2022-09-05T01:29:15.014Z,21.50
2022-09-05T01:31:37.414Z,21.50
2022-09-05T01:34:13.579Z,21.40
2022-09-05T01:36:56.568Z,21.50
2022-09-05T01:40:11.314Z,21.40
2022-09-05T01:42:38.214Z,21.50
2022-09-05T01:45:12.763Z,21.40
2022-09-05T01:47:51.515Z,21.40
2022-09-05T01:50:36.228Z,21.30
2022-09-05T01:53:16.696Z,21.30
2022-09-05T01:56:11.560Z,21.30
2022-09-05T01:58:52.375Z,21.20
2022-09-05T02:01:32.942Z,21.20
2022-09-05T02:04:19.028Z,21.20
2022-09-05T02:06:57.032Z,21.20
2022-09-05T02:10:07.249Z,21.20
2022-09-05T02:12:41.229Z,21.20
2022-09-05T02:15:17.173Z,21.20
2022-09-05T02:17:52.479Z,21.20
2022-09-05T02:20:27.777Z,21.20
2022-09-05T02:23:04.373Z,21.20
2022-09-05T02:26:02.538Z,21.20
2022-09-05T02:28:38.067Z,21.20
2022-09-05T02:31:19.907Z,21.10
2022-09-05T02:34:02.081Z,21.10
2022-09-05T02:36:39.770Z,21.10
2022-09-05T02:43:55.607Z,21.10
2022-09-05T02:45:21.363Z,21.10
2022-09-05T02:45:28.135Z,21.00
2022-09-05T02:48:15.617Z,21.00
2022-09-05T02:57:23.938Z,20.90
2022-09-05T02:57:40.976Z,20.90
2022-09-05T02:57:46.576Z,20.90
2022-09-05T02:59:53.710Z,20.80
2022-09-05T03:02:29.253Z,20.80
2022-09-05T03:05:04.614Z,20.80
2022-09-05T03:08:07.184Z,20.80
2022-09-05T03:11:04.820Z,20.80
2022-09-05T03:14:02.767Z,20.70
2022-09-05T03:17:05.042Z,20.70
2022-09-05T03:20:08.676Z,20.70
2022-09-05T03:23:27.946Z,20.60
2022-09-05T03:26:36.438Z,20.60
2022-09-05T03:29:36.068Z,20.60
2022-09-05T03:32:48.814Z,20.60
2022-09-05T03:36:18.930Z,20.60
2022-09-05T03:39:35.088Z,20.60
2022-09-05T03:42:42.742Z,20.60
2022-09-05T03:45:37.288Z,20.60
2022-09-05T03:48:29.434Z,20.60
2022-09-05T03:56:30.978Z,20.60
2022-09-05T03:57:24.721Z,20.60
2022-09-05T03:57:44.269Z,20.60
2022-09-05T04:00:21.874Z,20.50
2022-09-05T04:08:09.703Z,20.60
2022-09-05T04:08:15.589Z,21.00
2022-09-05T04:09:02.949Z,20.50
2022-09-05T04:11:37.655Z,20.50
2022-09-05T04:14:11.261Z,20.50
2022-09-05T04:16:50.517Z,20.60
2022-09-05T04:19:27.471Z,20.60
2022-09-05T04:22:03.731Z,20.50
2022-09-05T04:24:43.291Z,20.60
2022-09-05T04:27:28.487Z,20.50
2022-09-05T04:30:04.969Z,20.50
2022-09-05T04:32:59.171Z,20.40
2022-09-05T04:35:34.166Z,20.40
2022-09-05T04:38:11.333Z,20.40
2022-09-05T04:40:43.460Z,20.40
2022-09-05T04:43:19.730Z,20.40
2022-09-05T04:45:54.518Z,20.40
2022-09-05T04:48:28.072Z,20.40
2022-09-05T04:51:06.587Z,20.40
2022-09-05T04:54:01.121Z,20.40
2022-09-05T04:56:33.587Z,20.40
2022-09-05T05:02:59.692Z,20.40
2022-09-05T05:06:04.558Z,20.50
2022-09-05T05:06:08.550Z,20.40
2022-09-05T05:07:47.087Z,20.40
2022-09-05T05:14:31.332Z,20.40
2022-09-05T05:17:58.850Z,20.40
2022-09-05T05:18:12.787Z,20.40
2022-09-05T05:19:18.641Z,20.40
2022-09-05T05:21:52.910Z,20.40
2022-09-05T05:24:25.637Z,20.30
2022-09-05T05:27:02.757Z,20.40
2022-09-05T05:29:40.627Z,20.40
2022-09-05T05:32:09.376Z,20.40
2022-09-05T05:34:46.517Z,20.40
2022-09-05T05:37:19.598Z,20.40
2022-09-05T05:39:52.862Z,20.40
2022-09-05T05:42:24.709Z,20.40
2022-09-05T05:44:54.786Z,20.50
2022-09-05T05:47:32.196Z,20.50
2022-09-05T05:50:11.342Z,20.40
2022-09-05T05:53:10.868Z,20.50
2022-09-05T05:56:08.666Z,20.50
2022-09-05T05:58:54.143Z,20.60
2022-09-05T06:02:06.527Z,20.60
2022-09-05T06:05:04.439Z,20.70
2022-09-05T06:08:23.877Z,20.70
2022-09-05T06:14:52.539Z,20.80
2022-09-05T06:15:11.493Z,20.80
2022-09-05T06:18:19.097Z,20.90
2022-09-05T06:22:08.619Z,20.90
2022-09-05T06:25:16.691Z,21.00
2022-09-05T06:28:18.879Z,21.10
2022-09-05T06:31:27.666Z,21.20
2022-09-05T06:34:04.940Z,21.20
2022-09-05T06:36:48.997Z,21.30
2022-09-05T06:39:24.800Z,21.30
2022-09-05T06:42:42.827Z,21.40
2022-09-05T06:45:39.284Z,21.50
2022-09-05T06:48:23.829Z,21.50
2022-09-05T06:51:44.235Z,21.60
2022-09-05T06:54:37.754Z,21.60
2022-09-05T06:57:33.936Z,21.60
2022-09-05T07:00:23.622Z,21.70
2022-09-05T07:03:22.740Z,21.70
2022-09-05T07:05:57.645Z,21.80
2022-09-05T07:08:36.155Z,21.80
2022-09-05T07:11:11.799Z,21.80
2022-09-05T07:13:56.151Z,21.80
2022-09-05T07:16:39.400Z,21.90
2022-09-05T07:19:29.719Z,21.90
2022-09-05T07:22:46.899Z,21.90
2022-09-05T07:25:18.464Z,21.90
2022-09-05T07:28:26.369Z,22.00
2022-09-05T07:30:48.315Z,22.10
2022-09-05T07:33:20.738Z,22.10
2022-09-05T07:35:51.531Z,22.20
2022-09-05T07:38:35.306Z,22.10
2022-09-05T07:41:20.995Z,22.20
2022-09-05T07:43:50.991Z,22.30
2022-09-05T07:46:23.320Z,22.30
2022-09-05T07:48:55.880Z,22.40
2022-09-05T07:56:51.064Z,22.50
2022-09-05T07:57:15.659Z,22.50
2022-09-05T07:57:27.026Z,22.60
2022-09-05T08:00:05.814Z,22.70
2022-09-05T08:02:35.641Z,22.80
2022-09-05T08:05:05.351Z,22.90
2022-09-05T08:07:49.901Z,23.00
2022-09-05T08:10:35.654Z,23.10
2022-09-05T08:13:24.666Z,23.20
2022-09-05T08:16:10.154Z,23.30
2022-09-05T08:18:46.099Z,23.30
2022-09-05T08:21:27.238Z,23.40
2022-09-05T08:24:07.785Z,23.40
2022-09-05T08:26:47.258Z,23.50
2022-09-05T08:29:26.798Z,23.50
2022-09-05T08:32:02.556Z,23.60
2022-09-05T08:34:44.521Z,23.60
2022-09-05T08:37:21.252Z,23.80
2022-09-05T08:40:01.713Z,23.80
2022-09-05T08:43:36.609Z,23.90
2022-09-05T08:46:44.898Z,23.90
2022-09-05T08:48:54.844Z,24.00
2022-09-05T08:51:37.047Z,24.00
2022-09-05T08:54:27.872Z,24.00
2022-09-05T08:57:03.059Z,24.10
2022-09-05T09:00:06.299Z,24.10
2022-09-05T09:03:04.051Z,24.20
2022-09-05T09:06:13.617Z,24.20
2022-09-05T09:09:05.402Z,24.20
2022-09-05T09:11:37.553Z,24.30
2022-09-05T09:14:33.679Z,24.40
2022-09-05T09:17:18.650Z,24.50
2022-09-05T09:19:51.992Z,24.50
2022-09-05T09:22:34.825Z,24.50
2022-09-05T09:25:15.028Z,24.60
2022-09-05T09:28:48.275Z,24.70
2022-09-05T09:31:11.158Z,24.70
2022-09-05T09:33:44.456Z,24.80
2022-09-05T09:36:29.449Z,24.80
2022-09-05T09:39:37.679Z,24.80
2022-09-05T09:42:32.438Z,24.80
2022-09-05T09:45:28.633Z,24.80
2022-09-05T09:48:39.230Z,24.90
2022-09-05T09:51:34.733Z,25.00
2022-09-05T09:54:18.769Z,25.10
2022-09-05T09:57:19.515Z,25.10
2022-09-05T10:00:06.150Z,25.20
2022-09-05T10:06:52.510Z,25.20
2022-09-05T10:10:45.885Z,25.20
2022-09-05T10:10:54.449Z,25.30
2022-09-05T10:12:45.752Z,25.30
2022-09-05T10:15:32.422Z,25.30
2022-09-05T10:18:26.236Z,25.40
2022-09-05T10:21:17.751Z,25.40
2022-09-05T10:24:19.128Z,25.50
2022-09-05T10:27:21.565Z,25.50
2022-09-05T10:30:11.826Z,25.50
2022-09-05T10:35:08.451Z,25.50
2022-09-05T10:35:44.341Z,25.60
2022-09-05T10:38:15.853Z,25.70
2022-09-05T10:41:19.829Z,25.70
2022-09-05T10:43:42.862Z,25.60
2022-09-05T10:46:48.939Z,25.80
2022-09-05T10:49:16.404Z,25.80
2022-09-05T10:51:52.113Z,25.70
2022-09-05T10:54:45.800Z,25.70
2022-09-05T10:57:29.231Z,25.70
2022-09-05T11:02:23.408Z,25.70
2022-09-05T11:03:22.960Z,25.80
2022-09-05T11:05:59.050Z,25.80
2022-09-05T11:08:43.403Z,25.80
2022-09-05T11:11:28.490Z,25.90
2022-09-05T11:14:26.660Z,25.90
2022-09-05T11:17:01.739Z,25.90
2022-09-05T11:19:36.517Z,25.90
2022-09-05T11:22:22.894Z,26.00
2022-09-05T11:24:56.561Z,26.00
2022-09-05T11:27:32.463Z,26.00
2022-09-05T11:30:06.912Z,26.00
2022-09-05T11:37:50.741Z,26.00
2022-09-05T11:39:54.295Z,26.10
2022-09-05T11:40:00.587Z,26.10
2022-09-05T11:42:15.435Z,26.20
2022-09-05T11:45:25.700Z,26.20
2022-09-05T11:48:41.923Z,26.20
2022-09-05T11:51:52.520Z,26.30
2022-09-05T11:55:06.013Z,26.30
2022-09-05T11:58:44.981Z,26.40
2022-09-05T12:01:36.813Z,26.30
2022-09-05T12:04:29.603Z,26.40
2022-09-05T12:07:31.599Z,26.40
2022-09-05T12:10:46.838Z,26.40
2022-09-05T12:13:31.353Z,26.30
2022-09-05T12:16:08.626Z,26.20
2022-09-05T12:18:49.003Z,26.20
2022-09-05T12:21:31.690Z,26.20
2022-09-05T12:24:54.542Z,26.20
2022-09-05T12:27:42.930Z,26.20
2022-09-05T12:29:59.603Z,26.20
2022-09-05T12:33:32.814Z,26.20
2022-09-05T12:36:12.659Z,26.10
2022-09-05T12:41:32.109Z,26.20
2022-09-05T12:41:44.118Z,26.30
2022-09-05T12:44:41.655Z,26.30
2022-09-05T12:47:18.738Z,26.40
2022-09-05T12:50:02.964Z,26.40
2022-09-05T12:52:44.674Z,26.50
2022-09-05T12:55:26.009Z,26.60
2022-09-05T13:01:09.529Z,26.70
2022-09-05T13:03:08.223Z,26.60
2022-09-05T13:04:13.167Z,26.70
2022-09-05T13:06:39.392Z,26.70
2022-09-05T13:09:11.551Z,26.70
2022-09-05T13:14:50.781Z,26.70
2022-09-05T13:15:11.502Z,26.70
2022-09-05T13:17:47.149Z,26.70
2022-09-05T13:20:20.137Z,26.70
2022-09-05T13:22:50.545Z,26.80
2022-09-05T13:25:27.010Z,26.80
2022-09-05T13:28:01.637Z,26.80
2022-09-05T13:34:03.109Z,26.90
2022-09-05T13:38:04.294Z,26.80
2022-09-05T13:38:13.580Z,26.90
2022-09-05T13:39:11.873Z,27.00
2022-09-05T13:41:44.918Z,27.00
2022-09-05T13:44:27.572Z,27.00
2022-09-05T13:47:02.017Z,27.00
2022-09-05T13:49:44.759Z,27.00
2022-09-05T13:52:29.012Z,27.00
2022-09-05T13:55:20.140Z,27.00
2022-09-05T13:57:52.634Z,27.00
2022-09-05T14:01:24.367Z,27.00
2022-09-05T14:07:50.303Z,27.00
2022-09-05T14:10:51.964Z,27.00
2022-09-05T14:13:24.360Z,27.00
2022-09-05T14:15:57.151Z,27.00
2022-09-05T14:18:30.642Z,27.00
2022-09-05T14:21:17.910Z,27.10
2022-09-05T14:23:53.823Z,27.10
2022-09-05T14:26:30.073Z,27.10
2022-09-05T14:29:05.075Z,27.20
2022-09-05T14:37:39.269Z,27.10
2022-09-05T14:37:51.223Z,27.10
2022-09-05T14:38:14.482Z,27.10
2022-09-05T14:41:35.208Z,27.00
2022-09-05T14:44:24.744Z,27.00
2022-09-05T14:47:36.705Z,27.00
2022-09-05T14:50:21.300Z,27.10
2022-09-05T14:55:58.735Z,27.10
2022-09-05T15:02:51.033Z,27.10
2022-09-05T15:02:53.586Z,27.10
2022-09-05T15:07:09.548Z,27.20
2022-09-05T15:12:18.301Z,27.20
2022-09-05T15:12:39.753Z,27.20
2022-09-05T15:15:25.700Z,27.20
2022-09-05T15:17:58.342Z,27.30
2022-09-05T15:20:36.085Z,27.30
2022-09-05T15:23:16.471Z,27.30
2022-09-05T15:25:50.578Z,27.40
2022-09-05T15:28:31.214Z,27.40
2022-09-05T15:31:05.054Z,27.40
2022-09-05T15:33:33.531Z,27.40
2022-09-05T15:36:04.141Z,27.40
2022-09-05T15:38:46.639Z,27.30
2022-09-05T15:41:24.938Z,27.30
2022-09-05T15:43:58.324Z,27.30
2022-09-05T15:46:46.318Z,27.30
2022-09-05T15:49:27.098Z,27.40
2022-09-05T15:51:57.796Z,27.40
2022-09-05T15:54:38.360Z,27.40
2022-09-05T15:57:17.876Z,27.40
2022-09-05T15:59:52.820Z,27.40
2022-09-05T16:02:25.494Z,27.30
2022-09-05T16:10:31.824Z,27.30
2022-09-05T16:10:38.136Z,27.20
2022-09-05T16:11:07.727Z,27.20
2022-09-05T16:13:53.328Z,27.20
2022-09-05T16:23:20.839Z,27.20
2022-09-05T16:23:31.626Z,27.20
2022-09-05T16:23:32.501Z,27.20
2022-09-05T16:25:09.383Z,27.20
2022-09-05T16:27:47.933Z,27.30
2022-09-05T16:30:22.782Z,27.20
2022-09-05T16:32:55.053Z,27.20
2022-09-05T16:35:26.733Z,27.20
2022-09-05T16:38:02.959Z,27.20
2022-09-05T16:40:35.910Z,27.20
2022-09-05T16:43:09.345Z,27.20
2022-09-05T16:45:46.963Z,27.20
2022-09-05T16:48:30.330Z,27.10
2022-09-05T16:51:15.413Z,27.20
2022-09-05T16:53:58.371Z,27.20
2022-09-05T16:56:33.261Z,27.20
2022-09-05T16:59:07.555Z,27.20
2022-09-05T17:02:05.789Z,27.20
2022-09-05T17:05:04.467Z,27.20
2022-09-05T17:07:51.830Z,27.10
2022-09-05T17:10:24.319Z,27.20
2022-09-05T17:12:53.146Z,27.20
2022-09-05T17:15:27.659Z,27.20
2022-09-05T17:18:20.343Z,27.20
2022-09-05T17:20:54.474Z,27.20
2022-09-05T17:25:47.395Z,27.30
2022-09-05T17:29:48.871Z,27.30
2022-09-05T17:32:52.128Z,27.30
2022-09-05T17:35:42.238Z,27.20
2022-09-05T17:38:28.083Z,27.20
2022-09-05T17:41:35.947Z,27.20
2022-09-05T17:44:15.808Z,27.30
2022-09-05T17:46:52.725Z,27.20
2022-09-05T17:49:43.149Z,27.20
2022-09-05T17:52:20.622Z,27.20
2022-09-05T17:54:52.502Z,27.20
2022-09-05T17:57:41.354Z,27.20
2022-09-05T18:00:47.335Z,27.20
2022-09-05T18:04:16.020Z,27.20
2022-09-05T18:07:00.179Z,27.20
2022-09-05T18:10:11.907Z,27.20
2022-09-05T18:13:13.316Z,27.20
2022-09-05T18:16:11.703Z,27.10
2022-09-05T18:19:28.441Z,27.10
2022-09-05T18:21:49.679Z,27.10
2022-09-05T18:27:45.319Z,27.00
2022-09-05T18:30:28.050Z,27.10
2022-09-05T18:33:55.159Z,27.00
2022-09-05T18:36:35.447Z,27.00
2022-09-05T18:39:46.211Z,27.00
2022-09-05T18:42:26.094Z,27.00
2022-09-05T18:45:15.352Z,26.90
2022-09-05T18:47:53.258Z,26.90
2022-09-05T18:50:32.292Z,26.90
2022-09-05T18:53:09.431Z,26.90
2022-09-05T18:56:14.351Z,26.90
2022-09-05T18:58:34.540Z,26.90
2022-09-05T19:01:23.844Z,26.80
2022-09-05T19:04:00.723Z,26.80
2022-09-05T19:06:35.032Z,26.80
2022-09-05T19:09:08.429Z,26.70
2022-09-05T19:11:52.858Z,26.70
2022-09-05T19:14:34.680Z,26.70
2022-09-05T19:17:09.077Z,26.70
2022-09-05T19:20:32.246Z,26.70
2022-09-05T19:23:11.178Z,26.70
2022-09-05T19:25:43.513Z,26.60
2022-09-05T19:36:49.783Z,26.60
2022-09-05T19:36:51.312Z,26.60
2022-09-05T19:37:22.526Z,26.50
2022-09-05T19:37:29.247Z,26.50
2022-09-05T19:42:49.498Z,26.40
2022-09-05T19:47:38.547Z,26.30
2022-09-05T19:47:42.045Z,26.30
2022-09-05T19:48:27.581Z,26.20
2022-09-05T19:51:12.370Z,26.20
2022-09-05T19:54:04.036Z,26.10
2022-09-05T19:56:35.157Z,26.10
2022-09-05T19:59:03.334Z,26.00
2022-09-05T20:01:32.520Z,26.00
2022-09-05T20:04:01.476Z,25.90
2022-09-05T20:06:31.552Z,25.90
2022-09-05T20:09:14.335Z,25.80
2022-09-05T20:11:47.363Z,25.80
2022-09-05T20:14:21.865Z,25.70
2022-09-05T20:16:51.602Z,25.70
2022-09-05T20:19:31.795Z,25.70
2022-09-05T20:22:24.597Z,25.70
2022-09-05T20:24:56.356Z,25.60
2022-09-05T20:27:28.330Z,25.50
2022-09-05T20:29:59.723Z,25.50
2022-09-05T20:32:38.619Z,25.50
2022-09-05T20:40:05.467Z,25.40
2022-09-05T20:43:10.259Z,25.40
2022-09-05T20:43:32.445Z,25.40
2022-09-05T20:43:57.843Z,25.40
2022-09-05T20:53:18.963Z,25.30
2022-09-05T20:54:06.027Z,25.30
2022-09-05T20:54:20.542Z,25.30
2022-09-05T20:55:40.230Z,25.20
2022-09-05T20:58:12.211Z,25.20
2022-09-05T21:01:15.438Z,25.20
2022-09-05T21:03:36.774Z,25.10
2022-09-05T21:06:22.598Z,25.10
2022-09-05T21:08:52.144Z,25.00
2022-09-05T21:11:31.932Z,25.00
2022-09-05T21:14:04.417Z,25.00
2022-09-05T21:16:36.550Z,25.00
2022-09-05T21:19:04.977Z,25.00
2022-09-05T21:21:35.775Z,24.90
2022-09-05T21:24:16.889Z,24.90
2022-09-05T21:26:51.964Z,24.90
2022-09-05T21:29:32.541Z,24.90
2022-09-05T21:32:10.441Z,24.80
2022-09-05T21:34:44.724Z,24.80
2022-09-05T21:37:15.327Z,24.80
2022-09-05T21:39:58.792Z,24.80
2022-09-05T21:44:59.138Z,24.70
2022-09-05T21:47:47.589Z,25.00
2022-09-05T21:48:10.530Z,24.70
2022-09-05T21:50:42.454Z,24.70
2022-09-05T21:55:18.162Z,24.60
2022-09-05T21:59:18.932Z,24.60
2022-09-05T21:59:29.711Z,24.60
2022-09-05T22:01:54.577Z,24.60
2022-09-05T22:04:22.796Z,24.60
2022-09-05T22:06:53.192Z,24.50
2022-09-05T22:09:23.003Z,24.50
2022-09-05T22:11:51.383Z,24.50
2022-09-05T22:14:22.503Z,24.40
2022-09-05T22:16:52.077Z,24.40
2022-09-05T22:19:37.580Z,24.40
2022-09-05T22:22:15.993Z,24.80
2022-09-05T22:24:49.844Z,24.40
2022-09-05T22:27:20.009Z,24.30
2022-09-05T22:29:51.063Z,24.30
2022-09-05T22:32:34.541Z,24.30
2022-09-05T22:35:26.957Z,24.30
2022-09-05T22:38:00.793Z,24.20
2022-09-05T22:40:30.595Z,24.20
2022-09-05T22:42:59.860Z,24.20
2022-09-05T22:45:30.845Z,24.20
2022-09-05T22:47:59.521Z,24.20
2022-09-05T22:50:28.081Z,24.10
2022-09-05T22:52:56.173Z,24.10
2022-09-05T22:55:24.248Z,24.10
2022-09-05T22:57:52.312Z,24.20
2022-09-05T23:00:21.328Z,24.20
2022-09-05T23:02:52.853Z,24.20
2022-09-05T23:05:21.323Z,24.30
2022-09-05T23:07:49.487Z,24.30
2022-09-05T23:10:17.864Z,24.40
2022-09-05T23:12:46.110Z,24.40
2022-09-05T23:15:14.432Z,24.30
2022-09-05T23:17:42.764Z,24.30
2022-09-05T23:20:12.548Z,24.30
2022-09-05T23:22:42.971Z,24.30
2022-09-05T23:25:11.612Z,24.30
2022-09-05T23:27:40.095Z,24.20
2022-09-05T23:30:09.569Z,24.20
2022-09-05T23:32:44.053Z,24.10
2022-09-05T23:35:13.671Z,24.10
2022-09-05T23:37:44.180Z,24.10
2022-09-05T23:40:13.569Z,24.10
2022-09-05T23:42:41.988Z,24.00
2022-09-05T23:45:11.238Z,24.10
2022-09-05T23:47:39.308Z,24.10
2022-09-05T23:50:08.254Z,24.00
2022-09-05T23:52:42.208Z,24.00
2022-09-05T23:55:11.405Z,24.00
2022-09-05T23:57:39.813Z,24.00
